createdAt,value
2016-12-06T00:00:17.632Z,83.65
2016-12-06T00:01:28.303Z,81.45
2016-12-06T00:02:38.994Z,82.21
2016-12-06T00:03:49.695Z,81.64
2016-12-06T00:05:00.374Z,81.74
2016-12-06T00:06:11.077Z,81.16
2016-12-06T00:07:21.762Z,79.05
2016-12-06T00:08:32.457Z,79.53
2016-12-06T00:09:43.134Z,80.2
2016-12-06T00:10:53.840Z,80.2
2016-12-06T00:12:05.571Z,80.3
2016-12-06T00:13:16.797Z,80.68
2016-12-06T00:14:27.469Z,79.53
2016-12-06T00:15:38.145Z,80.11
2016-12-06T00:16:48.849Z,79.34
2016-12-06T00:17:59.545Z,79.44
2016-12-06T00:19:10.238Z,78.67
2016-12-06T00:20:20.943Z,79.14
2016-12-06T00:21:31.631Z,78.57
2016-12-06T00:22:42.335Z,78.19
2016-12-06T00:23:53.025Z,78.86
2016-12-06T00:25:03.723Z,79.14
2016-12-06T00:26:14.423Z,79.67
2016-12-06T00:27:25.110Z,78.13
2016-12-06T00:28:35.786Z,78.03
2016-12-06T00:29:47.027Z,78.7
2016-12-06T00:30:57.700Z,77.94
2016-12-06T00:32:08.376Z,78.52
2016-12-06T00:33:19.065Z,78.7
2016-12-06T00:34:29.742Z,78.86
2016-12-06T00:35:40.441Z,78.57
2016-12-06T00:36:51.654Z,79.72
2016-12-06T00:38:02.369Z,78.67
2016-12-06T00:39:13.064Z,79.14
2016-12-06T00:40:23.739Z,79.24
2016-12-06T00:41:34.405Z,79.44
2016-12-06T00:42:45.128Z,79.44
2016-12-06T00:43:55.814Z,79.44
2016-12-06T00:45:06.491Z,79.53
2016-12-06T00:46:17.153Z,79.44
2016-12-06T00:47:27.824Z,79.63
2016-12-06T00:48:38.526Z,80.49
2016-12-06T00:49:49.215Z,80.3
2016-12-06T00:50:59.886Z,81.07
2016-12-06T00:52:10.585Z,81.45
2016-12-06T00:53:21.311Z,80.83
2016-12-06T00:54:32.013Z,80.78
2016-12-06T00:55:42.677Z,80.2
2016-12-06T00:56:53.368Z,80.78
2016-12-06T00:58:04.038Z,80.2
2016-12-06T00:59:14.761Z,80.2
2016-12-06T01:00:25.446Z,80.4
2016-12-06T01:01:36.103Z,80.2
2016-12-06T01:02:46.818Z,79.68
2016-12-06T01:03:57.513Z,80.11
2016-12-06T01:05:08.226Z,80.3
2016-12-06T01:06:18.890Z,79.59
2016-12-06T01:07:29.590Z,79.39
2016-12-06T01:08:40.300Z,79.3
2016-12-06T01:09:51.004Z,80.07
2016-12-06T01:11:01.771Z,80.45
2016-12-06T01:12:12.463Z,80.26
2016-12-06T01:13:23.146Z,79.78
2016-12-06T01:14:33.815Z,79.11
2016-12-06T01:15:44.492Z,79.68
2016-12-06T01:16:55.176Z,80.45
2016-12-06T01:18:05.865Z,79.39
2016-12-06T01:19:16.542Z,79.3
2016-12-06T01:20:27.209Z,80.07
2016-12-06T01:21:37.888Z,79.39
2016-12-06T01:22:48.581Z,79.11
2016-12-06T01:23:59.265Z,79.01
2016-12-06T01:25:09.944Z,79.14
2016-12-06T01:26:20.625Z,79.24
2016-12-06T01:27:31.311Z,79.05
2016-12-06T01:28:42.039Z,78.28
2016-12-06T01:29:53.240Z,79.44
2016-12-06T01:31:03.937Z,79.53
2016-12-06T01:32:15.115Z,79.44
2016-12-06T01:33:25.785Z,78.86
2016-12-06T01:34:36.483Z,79.01
2016-12-06T01:35:47.171Z,80.45
2016-12-06T01:36:57.857Z,80.26
2016-12-06T01:38:08.532Z,79.49
2016-12-06T01:39:19.218Z,80.93
2016-12-06T01:40:29.898Z,79.97
2016-12-06T01:41:40.595Z,80.74
2016-12-06T01:42:51.304Z,81.31
2016-12-06T01:44:01.964Z,81.22
2016-12-06T01:45:12.677Z,82.08
2016-12-06T01:46:23.344Z,81.12
2016-12-06T01:47:34.021Z,80.83
2016-12-06T01:48:44.837Z,80.07
2016-12-06T01:49:55.693Z,81.51
2016-12-06T01:51:06.407Z,80.93
2016-12-06T01:52:17.084Z,80.26
2016-12-06T01:53:27.783Z,80.64
2016-12-06T01:54:38.459Z,81.79
2016-12-06T01:55:49.107Z,81.79
2016-12-06T01:57:00.332Z,81.02
2016-12-06T01:58:11.016Z,81.31
2016-12-06T01:59:21.678Z,81.7
2016-12-06T02:00:32.363Z,81.98
2016-12-06T02:01:43.053Z,82.32
2016-12-06T02:02:53.724Z,82.62
2016-12-06T02:04:04.416Z,81.95
2016-12-06T02:05:15.099Z,82.52
2016-12-06T02:06:25.769Z,82.52
2016-12-06T02:07:36.466Z,82.62
2016-12-06T02:08:47.170Z,83.48
2016-12-06T02:09:57.873Z,81.85
2016-12-06T02:11:08.573Z,82.14
2016-12-06T02:12:19.270Z,82.23
2016-12-06T02:13:29.943Z,82.14
2016-12-06T02:14:40.638Z,83
2016-12-06T02:15:51.324Z,82.62
2016-12-06T02:17:02.016Z,83.76
2016-12-06T02:18:12.738Z,83.67
2016-12-06T02:19:23.424Z,83
2016-12-06T02:20:34.095Z,83.58
2016-12-06T02:21:44.789Z,83.58
2016-12-06T02:22:55.466Z,83.19
2016-12-06T02:24:06.674Z,84.44
2016-12-06T02:25:17.370Z,83.48
2016-12-06T02:26:28.055Z,84.25
2016-12-06T02:27:38.755Z,84.15
2016-12-06T02:28:49.438Z,82.32
2016-12-06T02:30:00.121Z,83.86
2016-12-06T02:31:10.821Z,83.58
2016-12-06T02:32:21.489Z,83.86
2016-12-06T02:33:32.185Z,84.44
2016-12-06T02:34:43.411Z,83.86
2016-12-06T02:35:54.103Z,83.48
2016-12-06T02:37:04.787Z,82.71
2016-12-06T02:38:15.474Z,83.38
2016-12-06T02:39:26.151Z,83.86
2016-12-06T02:40:36.850Z,83.67
2016-12-06T02:41:47.534Z,84.15
2016-12-06T02:42:58.212Z,83.67
2016-12-06T02:44:08.870Z,84.44
2016-12-06T02:45:19.550Z,83.09
2016-12-06T02:46:30.224Z,82.81
2016-12-06T02:47:40.877Z,82.71
2016-12-06T02:48:51.569Z,82.42
2016-12-06T02:50:02.248Z,82.62
2016-12-06T02:51:12.975Z,81.6
2016-12-06T02:52:23.656Z,81.79
2016-12-06T02:53:34.373Z,81.41
2016-12-06T02:54:45.051Z,81.41
2016-12-06T02:55:55.731Z,81.12
2016-12-06T02:57:06.450Z,81.12
2016-12-06T02:58:17.097Z,81.12
2016-12-06T02:59:27.766Z,81.37
2016-12-06T03:00:38.473Z,82.62
2016-12-06T03:01:49.163Z,82.14
2016-12-06T03:02:59.859Z,82.81
2016-12-06T03:04:10.565Z,82.62
2016-12-06T03:05:21.236Z,82.52
2016-12-06T03:06:31.936Z,82.71
2016-12-06T03:07:42.620Z,83.38
2016-12-06T03:08:53.841Z,83.76
2016-12-06T03:10:05.096Z,84.34
2016-12-06T03:11:15.776Z,84.15
2016-12-06T03:12:26.450Z,83.58
2016-12-06T03:13:37.118Z,83.76
2016-12-06T03:14:47.801Z,84.25
2016-12-06T03:15:58.977Z,85.01
2016-12-06T03:17:09.685Z,84.82
2016-12-06T03:18:20.378Z,85.21
2016-12-06T03:19:31.560Z,84.72
2016-12-06T03:20:42.264Z,84.25
2016-12-06T03:21:52.929Z,85.16
2016-12-06T03:23:04.126Z,84.97
2016-12-06T03:24:14.892Z,85.68
2016-12-06T03:25:25.572Z,85.11
2016-12-06T03:26:36.785Z,85.21
2016-12-06T03:27:47.995Z,86.41
2016-12-06T03:28:58.661Z,85.49
2016-12-06T03:30:09.334Z,85.11
2016-12-06T03:31:20.022Z,85.01
2016-12-06T03:32:30.688Z,85.58
2016-12-06T03:33:41.370Z,85.06
2016-12-06T03:34:52.591Z,84.88
2016-12-06T03:36:03.788Z,85.74
2016-12-06T03:37:14.464Z,85.54
2016-12-06T03:38:25.170Z,86.12
2016-12-06T03:39:35.849Z,86.69
2016-12-06T03:40:46.545Z,87.08
2016-12-06T03:41:57.234Z,87.08
2016-12-06T03:43:07.949Z,86.5
2016-12-06T03:44:18.650Z,87.32
2016-12-06T03:45:29.332Z,87.55
2016-12-06T03:46:40.006Z,88.8
2016-12-06T03:47:50.684Z,87.94
2016-12-06T03:49:01.386Z,87.55
2016-12-06T03:50:12.052Z,86.98
2016-12-06T03:51:22.764Z,86.69
2016-12-06T03:52:33.607Z,85.83
2016-12-06T03:53:44.269Z,86.41
2016-12-06T03:54:54.928Z,86.5
2016-12-06T03:56:05.625Z,86.31
2016-12-06T03:57:16.329Z,86.5
2016-12-06T03:58:27.032Z,86.41
2016-12-06T03:59:37.747Z,86.69
2016-12-06T04:00:48.440Z,86.6
2016-12-06T04:01:59.143Z,87.17
2016-12-06T04:03:09.822Z,86.5
2016-12-06T04:04:20.500Z,87.27
2016-12-06T04:05:31.184Z,86.5
2016-12-06T04:06:41.881Z,86.21
2016-12-06T04:07:53.112Z,86.21
2016-12-06T04:09:04.337Z,86.12
2016-12-06T04:10:15.034Z,86.5
2016-12-06T04:11:25.706Z,86.6
2016-12-06T04:12:36.391Z,86.5
2016-12-06T04:13:47.097Z,86.41
2016-12-06T04:14:57.774Z,86.12
2016-12-06T04:16:08.444Z,86.41
2016-12-06T04:17:19.127Z,87.46
2016-12-06T04:18:29.806Z,86.69
2016-12-06T04:19:40.506Z,86.6
2016-12-06T04:20:51.199Z,87.17
2016-12-06T04:22:01.859Z,86.98
2016-12-06T04:23:12.519Z,87.37
2016-12-06T04:24:23.205Z,87.27
2016-12-06T04:25:34.406Z,88.23
2016-12-06T04:26:45.601Z,88.32
2016-12-06T04:27:56.294Z,87.84
2016-12-06T04:29:06.998Z,88.85
2016-12-06T04:30:17.651Z,88.32
2016-12-06T04:31:28.343Z,88.23
2016-12-06T04:32:39.050Z,87.46
2016-12-06T04:33:49.752Z,86.88
2016-12-06T04:35:00.451Z,87.37
2016-12-06T04:36:11.130Z,87.27
2016-12-06T04:37:21.823Z,87.08
2016-12-06T04:38:32.549Z,88.23
2016-12-06T04:39:43.272Z,87.46
2016-12-06T04:40:53.998Z,87.17
2016-12-06T04:42:04.688Z,88.03
2016-12-06T04:43:15.352Z,87.84
2016-12-06T04:44:26.022Z,88.61
2016-12-06T04:45:36.716Z,88.32
2016-12-06T04:46:47.402Z,87.84
2016-12-06T04:47:58.594Z,87.84
2016-12-06T04:49:09.301Z,87.84
2016-12-06T04:50:19.952Z,88.42
2016-12-06T04:51:30.613Z,88.42
2016-12-06T04:52:41.795Z,88.51
2016-12-06T04:53:52.472Z,88.76
2016-12-06T04:55:03.140Z,89.33
2016-12-06T04:56:13.814Z,88.95
2016-12-06T04:57:25.049Z,88.66
2016-12-06T04:58:35.713Z,89.72
2016-12-06T04:59:46.387Z,89.72
2016-12-06T05:00:57.086Z,89.14
2016-12-06T05:02:07.777Z,89.37
2016-12-06T05:03:18.974Z,89.72
2016-12-06T05:04:29.622Z,89.23
2016-12-06T05:05:40.302Z,89.43
2016-12-06T05:06:51.473Z,89.81
2016-12-06T05:08:02.158Z,89.81
2016-12-06T05:09:13.359Z,90
2016-12-06T05:10:24.570Z,90.29
2016-12-06T05:11:35.264Z,90.77
2016-12-06T05:12:45.941Z,91.05
2016-12-06T05:13:56.631Z,90.96
2016-12-06T05:15:07.811Z,91.25
2016-12-06T05:16:18.493Z,91.15
2016-12-06T05:17:29.685Z,90.86
2016-12-06T05:18:40.364Z,91.15
2016-12-06T05:19:51.064Z,91.63
2016-12-06T05:21:01.810Z,91.63
2016-12-06T05:22:12.506Z,92.21
2016-12-06T05:23:23.192Z,92.4
2016-12-06T05:24:33.905Z,92.49
2016-12-06T05:25:44.599Z,93.3
2016-12-06T05:26:55.278Z,93.98
2016-12-06T05:28:05.968Z,93.3
2016-12-06T05:29:16.662Z,93.5
2016-12-06T05:30:27.333Z,93.3
2016-12-06T05:31:38.012Z,93.12
2016-12-06T05:32:48.701Z,93.12
2016-12-06T05:33:59.873Z,92.92
2016-12-06T05:35:10.566Z,92.83
2016-12-06T05:36:21.242Z,91.82
2016-12-06T05:37:31.908Z,92.3
2016-12-06T05:38:42.646Z,92.11
2016-12-06T05:39:53.354Z,91.82
2016-12-06T05:41:04.060Z,91.25
2016-12-06T05:42:14.741Z,91.53
2016-12-06T05:43:25.425Z,91.92
2016-12-06T05:44:36.600Z,90.96
2016-12-06T05:45:47.322Z,91.05
2016-12-06T05:46:57.994Z,90.86
2016-12-06T05:48:08.694Z,90.48
2016-12-06T05:49:19.370Z,91.05
2016-12-06T05:50:30.088Z,91.72
2016-12-06T05:51:40.768Z,91.82
2016-12-06T05:52:51.447Z,92.01
2016-12-06T05:54:02.115Z,91.87
2016-12-06T05:55:12.813Z,92.21
2016-12-06T05:56:23.511Z,91.68
2016-12-06T05:57:34.186Z,92.06
2016-12-06T05:58:44.869Z,91.63
2016-12-06T05:59:55.592Z,91.87
2016-12-06T06:01:06.289Z,91.01
2016-12-06T06:02:16.977Z,91.01
2016-12-06T06:03:27.638Z,90.58
2016-12-06T06:04:38.326Z,90.96
2016-12-06T06:05:49.006Z,90.58
2016-12-06T06:06:59.712Z,90.86
2016-12-06T06:08:10.396Z,90.39
2016-12-06T06:09:21.082Z,90.67
2016-12-06T06:10:31.762Z,90.67
2016-12-06T06:11:42.452Z,90.67
2016-12-06T06:12:53.144Z,90.77
2016-12-06T06:14:03.825Z,90.58
2016-12-06T06:15:14.516Z,90
2016-12-06T06:16:25.180Z,89.72
2016-12-06T06:17:35.891Z,90.09
2016-12-06T06:18:46.548Z,90.39
2016-12-06T06:19:57.240Z,90.44
2016-12-06T06:21:07.917Z,90.15
2016-12-06T06:22:18.586Z,89.76
2016-12-06T06:23:29.282Z,89.38
2016-12-06T06:24:39.973Z,89.9
2016-12-06T06:25:50.673Z,89.43
2016-12-06T06:27:01.359Z,89.81
2016-12-06T06:28:12.056Z,89.43
2016-12-06T06:29:22.712Z,90
2016-12-06T06:30:33.417Z,90.34
2016-12-06T06:31:44.620Z,89.76
2016-12-06T06:32:55.305Z,90.63
2016-12-06T06:34:06.498Z,90.53
2016-12-06T06:35:17.158Z,90.72
2016-12-06T06:36:27.865Z,91.11
2016-12-06T06:37:38.579Z,90.63
2016-12-06T06:38:49.265Z,90.72
2016-12-06T06:39:59.975Z,90.63
2016-12-06T06:41:10.650Z,90.63
2016-12-06T06:42:21.322Z,90.53
2016-12-06T06:43:32.017Z,90.34
2016-12-06T06:44:42.707Z,90.05
2016-12-06T06:45:53.391Z,90.72
2016-12-06T06:47:04.568Z,90.44
2016-12-06T06:48:15.225Z,90.53
2016-12-06T06:49:25.928Z,90.72
2016-12-06T06:50:36.633Z,90.15
2016-12-06T06:51:47.331Z,90.63
2016-12-06T06:52:58.003Z,90.53
2016-12-06T06:54:08.695Z,90.44
2016-12-06T06:55:19.368Z,90.63
2016-12-06T06:56:30.072Z,90.63
2016-12-06T06:57:40.755Z,90.91
2016-12-06T06:58:51.443Z,91.11
2016-12-06T07:00:02.101Z,90.63
2016-12-06T07:01:12.779Z,90.63
2016-12-06T07:02:23.456Z,91.2
2016-12-06T07:03:34.148Z,91.01
2016-12-06T07:04:44.860Z,91.39
2016-12-06T07:05:55.575Z,91.77
2016-12-06T07:07:06.272Z,90.82
2016-12-06T07:08:16.940Z,90.82
2016-12-06T07:09:27.625Z,91.11
2016-12-06T07:10:38.306Z,90.72
2016-12-06T07:11:49.005Z,91.58
2016-12-06T07:12:59.682Z,91.01
2016-12-06T07:14:10.346Z,91.97
2016-12-06T07:15:21.037Z,91.3
2016-12-06T07:16:31.695Z,91.11
2016-12-06T07:17:42.383Z,91.87
2016-12-06T07:18:53.072Z,91.68
2016-12-06T07:20:03.761Z,91.2
2016-12-06T07:21:14.421Z,91.87
2016-12-06T07:22:25.118Z,91.97
2016-12-06T07:23:35.805Z,92.63
2016-12-06T07:24:46.508Z,93.55
2016-12-06T07:25:57.199Z,93.26
2016-12-06T07:27:07.864Z,93.93
2016-12-06T07:28:18.549Z,93.93
2016-12-06T07:29:29.216Z,93.84
2016-12-06T07:30:39.914Z,93.93
2016-12-06T07:31:50.582Z,94.31
2016-12-06T07:33:01.266Z,94.79
2016-12-06T07:34:11.956Z,94.98
2016-12-06T07:35:22.613Z,94.89
2016-12-06T07:36:33.306Z,94.79
2016-12-06T07:37:44.002Z,94.02
2016-12-06T07:38:54.657Z,94.12
2016-12-06T07:40:05.373Z,94.6
2016-12-06T07:41:16.052Z,96.22
2016-12-06T07:42:26.738Z,96.99
2016-12-06T07:43:37.422Z,95.56
2016-12-06T07:44:48.093Z,96.51
2016-12-06T07:45:58.788Z,96.42
2016-12-06T07:47:09.472Z,95.75
2016-12-06T07:48:20.669Z,94.7
2016-12-06T07:49:31.379Z,94.6
2016-12-06T07:50:42.113Z,94.21
2016-12-06T07:51:52.773Z,93.93
2016-12-06T07:53:03.482Z,94.12
2016-12-06T07:54:14.163Z,94.21
2016-12-06T07:55:24.842Z,94.31
2016-12-06T07:56:36.031Z,94.98
2016-12-06T07:57:46.728Z,95.36
2016-12-06T07:58:57.397Z,96.32
2016-12-06T08:00:08.087Z,95.27
2016-12-06T08:01:18.755Z,94.21
2016-12-06T08:02:29.433Z,93.26
2016-12-06T08:03:40.122Z,93.35
2016-12-06T08:04:50.847Z,92.59
2016-12-06T08:06:01.519Z,93.93
2016-12-06T08:07:12.210Z,93.3
2016-12-06T08:08:22.891Z,93.69
2016-12-06T08:09:33.602Z,93.21
2016-12-06T08:10:44.272Z,93.84
2016-12-06T08:11:54.944Z,94.89
2016-12-06T08:13:05.614Z,94.98
2016-12-06T08:14:16.790Z,95.56
2016-12-06T08:15:27.468Z,96.03
2016-12-06T08:16:38.158Z,95.17
2016-12-06T08:17:48.868Z,94.6
2016-12-06T08:18:59.534Z,95.75
2016-12-06T08:20:10.200Z,95.65
2016-12-06T08:21:20.912Z,95.27
2016-12-06T08:22:31.619Z,92.92
2016-12-06T08:23:42.290Z,91.39
2016-12-06T08:24:52.985Z,90.72
2016-12-06T08:26:03.697Z,89.52
2016-12-06T08:27:14.433Z,89.33
2016-12-06T08:28:25.124Z,88.76
2016-12-06T08:29:35.811Z,88.03
2016-12-06T08:30:47.057Z,86.12
2016-12-06T08:31:57.756Z,85.16
2016-12-06T08:33:08.416Z,84.34
2016-12-06T08:34:19.316Z,83.67
2016-12-06T08:35:30.007Z,80.83
2016-12-06T08:36:40.712Z,79.3
2016-12-06T08:37:51.379Z,79.14
2016-12-06T08:39:02.053Z,78.77
2016-12-06T08:40:12.715Z,78
2016-12-06T08:41:23.873Z,77.26
2016-12-06T08:42:34.562Z,75.92
2016-12-06T08:43:45.215Z,75.82
2016-12-06T08:44:55.942Z,75.2
2016-12-06T08:46:06.624Z,74.08
2016-12-06T08:47:17.295Z,73.69
2016-12-06T08:48:28.005Z,71.61
2016-12-06T08:49:38.689Z,70.46
2016-12-06T08:50:49.395Z,70.21
2016-12-06T08:52:00.086Z,70.43
2016-12-06T08:53:10.748Z,68.41
2016-12-06T08:54:21.442Z,66.42
2016-12-06T08:55:32.155Z,65.37
2016-12-06T08:56:42.869Z,65.08
2016-12-06T08:57:53.549Z,64.63
2016-12-06T08:59:04.256Z,63.7
2016-12-06T09:00:14.931Z,62.93
2016-12-06T09:01:25.623Z,62.48
2016-12-06T09:02:36.320Z,61.51
2016-12-06T09:03:47.029Z,62.99
2016-12-06T09:04:57.713Z,62.7
2016-12-06T09:06:08.417Z,61.06
2016-12-06T09:07:19.129Z,59.42
2016-12-06T09:08:29.810Z,59.55
2016-12-06T09:09:40.487Z,59.42
2016-12-06T09:10:51.157Z,60.31
2016-12-06T09:12:01.829Z,58.68
2016-12-06T09:13:13.025Z,58.19
2016-12-06T09:14:23.714Z,58.42
2016-12-06T09:15:34.401Z,57.57
2016-12-06T09:16:45.110Z,58.25
2016-12-06T09:17:55.794Z,57.57
2016-12-06T09:19:06.503Z,57.09
2016-12-06T09:20:17.214Z,57.19
2016-12-06T09:21:27.894Z,59.41
2016-12-06T09:22:38.608Z,58.15
2016-12-06T09:23:49.266Z,57.77
2016-12-06T09:24:59.931Z,57.26
2016-12-06T09:26:10.649Z,58
2016-12-06T09:27:21.355Z,56.68
2016-12-06T09:28:32.030Z,57.16
2016-12-06T09:29:42.734Z,57.87
2016-12-06T09:30:53.957Z,58.25
2016-12-06T09:32:04.677Z,56.83
2016-12-06T09:33:15.382Z,55.47
2016-12-06T09:34:26.054Z,54.25
2016-12-06T09:35:36.772Z,53.79
2016-12-06T09:36:47.492Z,52.63
2016-12-06T09:37:58.164Z,52.17
2016-12-06T09:39:08.888Z,50.62
2016-12-06T09:40:19.580Z,51.13
2016-12-06T09:41:30.271Z,50.92
2016-12-06T09:42:40.981Z,52.85
2016-12-06T09:43:52.201Z,53.02
2016-12-06T09:45:02.901Z,53.77
2016-12-06T09:46:13.598Z,53.83
2016-12-06T09:47:24.290Z,55.29
2016-12-06T09:48:34.967Z,54.61
2016-12-06T09:49:45.672Z,54.51
2016-12-06T09:50:56.339Z,54.53
2016-12-06T09:52:07.040Z,54.8
2016-12-06T09:53:18.291Z,53.86
2016-12-06T09:54:28.977Z,52.92
2016-12-06T09:55:40.211Z,52.14
2016-12-06T09:56:50.911Z,50.7
2016-12-06T09:58:01.643Z,50.62
2016-12-06T09:59:12.325Z,50.14
2016-12-06T10:00:23.035Z,51.01
2016-12-06T10:01:33.720Z,50.04
2016-12-06T10:02:44.412Z,49.85
2016-12-06T10:03:55.094Z,49.17
2016-12-06T10:05:05.815Z,48.81
2016-12-06T10:06:16.481Z,48.71
2016-12-06T10:07:27.168Z,48.52
2016-12-06T10:08:37.876Z,48.54
2016-12-06T10:09:48.588Z,48.61
2016-12-06T10:10:59.279Z,48.81
2016-12-06T10:12:09.986Z,49.95
2016-12-06T10:13:20.695Z,49.73
2016-12-06T10:14:31.399Z,50.02
2016-12-06T10:15:42.596Z,52.82
2016-12-06T10:16:53.280Z,52.8
2016-12-06T10:18:03.966Z,52.51
2016-12-06T10:19:14.641Z,51.86
2016-12-06T10:20:25.360Z,50.4
2016-12-06T10:21:36.062Z,50.31
2016-12-06T10:22:46.776Z,49.73
2016-12-06T10:23:57.998Z,50.14
2016-12-06T10:25:08.709Z,51.28
2016-12-06T10:26:19.412Z,52.24
2016-12-06T10:27:30.111Z,52.12
2016-12-06T10:28:40.816Z,50.76
2016-12-06T10:29:51.507Z,51.06
2016-12-06T10:31:02.233Z,50.79
2016-12-06T10:32:13.503Z,50.6
2016-12-06T10:33:24.230Z,48.88
2016-12-06T10:34:34.900Z,47.36
2016-12-06T10:35:45.579Z,45.83
2016-12-06T10:36:56.817Z,46.62
2016-12-06T10:38:08.028Z,44.86
2016-12-06T10:39:18.736Z,44.4
2016-12-06T10:40:30.478Z,43.64
2016-12-06T10:41:41.171Z,44.51
2016-12-06T10:42:52.416Z,44.54
2016-12-06T10:44:03.139Z,44.54
2016-12-06T10:45:13.815Z,43.27
2016-12-06T10:46:25.058Z,44.88
2016-12-06T10:47:35.740Z,48.22
2016-12-06T10:48:46.449Z,47.5
2016-12-06T10:49:57.127Z,47.5
2016-12-06T10:51:08.353Z,47.5
2016-12-06T10:52:19.537Z,47.24
2016-12-06T10:53:30.207Z,47.33
2016-12-06T10:54:40.881Z,48.03
2016-12-06T10:55:51.618Z,47.26
2016-12-06T10:57:02.320Z,48.3
2016-12-06T10:58:13.070Z,48.59
2016-12-06T10:59:23.782Z,48.01
2016-12-06T11:00:34.487Z,47.06
2016-12-06T11:01:45.195Z,47.36
2016-12-06T11:02:55.886Z,48.32
2016-12-06T11:04:06.587Z,46.09
2016-12-06T11:05:17.283Z,46.29
2016-12-06T11:06:27.973Z,47.26
2016-12-06T11:07:38.681Z,44.47
2016-12-06T11:08:49.347Z,45.47
2016-12-06T11:10:00.042Z,44.68
2016-12-06T11:11:10.732Z,43.86
2016-12-06T11:12:21.427Z,43.4
2016-12-06T11:13:32.110Z,43.49
2016-12-06T11:14:42.805Z,43.74
2016-12-06T11:15:53.521Z,43.76
2016-12-06T11:17:04.226Z,43.01
2016-12-06T11:18:14.954Z,41.77
2016-12-06T11:19:25.665Z,41.08
2016-12-06T11:20:36.368Z,41.96
2016-12-06T11:21:47.051Z,42.74
2016-12-06T11:22:57.756Z,41.64
2016-12-06T11:24:08.492Z,42.52
2016-12-06T11:25:19.192Z,41.26
2016-12-06T11:26:29.901Z,41.55
2016-12-06T11:27:40.632Z,41.74
2016-12-06T11:28:51.345Z,42.93
2016-12-06T11:30:02.553Z,43.2
2016-12-06T11:31:13.267Z,43.76
2016-12-06T11:32:24.023Z,43.74
2016-12-06T11:33:35.286Z,44.13
2016-12-06T11:34:45.984Z,43.74
2016-12-06T11:35:56.669Z,43.18
2016-12-06T11:37:07.881Z,42.71
2016-12-06T11:38:18.576Z,41.45
2016-12-06T11:39:30.329Z,39.94
2016-12-06T11:40:41.017Z,39.55
2016-12-06T11:41:51.707Z,39.28
2016-12-06T11:43:02.915Z,38.81
2016-12-06T11:44:13.633Z,38.32
2016-12-06T11:45:24.850Z,37.93
2016-12-06T11:46:35.594Z,38.52
2016-12-06T11:47:46.293Z,39.2
2016-12-06T11:48:57.510Z,39.39
2016-12-06T11:50:08.730Z,38.81
2016-12-06T11:51:19.453Z,39.1
2016-12-06T11:52:30.164Z,39.29
2016-12-06T11:53:40.869Z,39.18
2016-12-06T11:54:51.569Z,37.92
2016-12-06T11:56:02.265Z,39.18
2016-12-06T11:57:12.973Z,38.98
2016-12-06T11:58:23.676Z,39.26
2016-12-06T11:59:34.905Z,38.7
2016-12-06T12:00:45.601Z,37.93
2016-12-06T12:01:56.323Z,37.35
2016-12-06T12:03:07.050Z,37.35
2016-12-06T12:04:17.790Z,37.46
2016-12-06T12:05:28.508Z,38.23
2016-12-06T12:06:39.220Z,39
2016-12-06T12:07:49.924Z,38.01
2016-12-06T12:09:00.613Z,38.5
2016-12-06T12:10:11.343Z,39.08
2016-12-06T12:11:22.042Z,39.36
2016-12-06T12:12:32.790Z,38.87
2016-12-06T12:13:43.477Z,38.11
2016-12-06T12:14:54.183Z,38.81
2016-12-06T12:16:04.909Z,38.98
2016-12-06T12:17:15.626Z,38.32
2016-12-06T12:18:26.361Z,38.71
2016-12-06T12:19:37.073Z,38.98
2016-12-06T12:20:47.749Z,37.92
2016-12-06T12:21:58.452Z,38.7
2016-12-06T12:23:09.159Z,38.98
2016-12-06T12:24:19.865Z,38.71
2016-12-06T12:25:30.667Z,39.18
2016-12-06T12:26:41.351Z,38.11
2016-12-06T12:27:52.070Z,37.22
2016-12-06T12:29:02.762Z,38.87
2016-12-06T12:30:13.475Z,39.43
2016-12-06T12:31:24.177Z,40.26
2016-12-06T12:32:34.880Z,41.05
2016-12-06T12:33:45.588Z,39.98
2016-12-06T12:34:56.287Z,40
2016-12-06T12:36:06.982Z,39.92
2016-12-06T12:37:17.684Z,38.39
2016-12-06T12:38:28.365Z,38.95
2016-12-06T12:39:39.580Z,37.88
2016-12-06T12:40:50.293Z,38.48
2016-12-06T12:42:01.014Z,38.65
2016-12-06T12:43:11.706Z,38.56
2016-12-06T12:44:22.401Z,36.34
2016-12-06T12:45:33.114Z,36.75
2016-12-06T12:46:43.802Z,37.34
2016-12-06T12:47:54.522Z,37.52
2016-12-06T12:49:05.232Z,39.14
2016-12-06T12:50:15.955Z,37.86
2016-12-06T12:51:26.688Z,38.06
2016-12-06T12:52:37.384Z,38.15
2016-12-06T12:53:48.072Z,37.28
2016-12-06T12:54:58.766Z,37.68
2016-12-06T12:56:09.453Z,36.63
2016-12-06T12:57:20.150Z,36.36
2016-12-06T12:58:30.839Z,36.16
2016-12-06T12:59:41.590Z,35.97
2016-12-06T13:00:52.290Z,36.85
2016-12-06T13:02:03.076Z,35.21
2016-12-06T13:03:14.402Z,34.94
2016-12-06T13:04:25.094Z,34.86
2016-12-06T13:05:35.818Z,34.86
2016-12-06T13:06:46.531Z,33.39
2016-12-06T13:07:57.245Z,32.42
2016-12-06T13:09:07.954Z,33.01
2016-12-06T13:10:18.640Z,31.45
2016-12-06T13:11:29.336Z,30.39
2016-12-06T13:12:40.050Z,31.07
2016-12-06T13:13:50.742Z,30.67
2016-12-06T13:15:01.435Z,32.5
2016-12-06T13:16:12.133Z,30.85
2016-12-06T13:17:22.837Z,31.43
2016-12-06T13:18:33.525Z,31.34
2016-12-06T13:19:44.261Z,31.74
2016-12-06T13:20:54.966Z,30.58
2016-12-06T13:22:05.792Z,30.02
2016-12-06T13:23:16.485Z,30.39
2016-12-06T13:24:27.179Z,29.71
2016-12-06T13:25:37.879Z,30.28
2016-12-06T13:26:48.710Z,30.77
2016-12-06T13:27:59.417Z,30.87
2016-12-06T13:29:10.125Z,30.29
2016-12-06T13:30:20.849Z,30
2016-12-06T13:31:32.085Z,29.91
2016-12-06T13:32:42.808Z,30.98
2016-12-06T13:33:54.065Z,30.19
2016-12-06T13:35:04.784Z,30.31
2016-12-06T13:36:15.490Z,30.21
2016-12-06T13:37:26.688Z,29.43
2016-12-06T13:38:37.387Z,30.32
2016-12-06T13:39:48.068Z,29.44
2016-12-06T13:40:58.771Z,28.88
2016-12-06T13:42:09.499Z,28.29
2016-12-06T13:43:20.230Z,28.4
2016-12-06T13:44:30.942Z,28.99
2016-12-06T13:45:41.669Z,29.66
2016-12-06T13:46:52.904Z,29.56
2016-12-06T13:48:03.626Z,29.46
2016-12-06T13:49:14.326Z,30.6
2016-12-06T13:50:25.022Z,31.27
2016-12-06T13:51:35.730Z,31.64
2016-12-06T13:52:46.445Z,32.23
2016-12-06T13:53:57.653Z,31.43
2016-12-06T13:55:08.367Z,31.06
2016-12-06T13:56:19.089Z,30.68
2016-12-06T13:57:29.791Z,30.41
2016-12-06T13:58:40.496Z,31.28
2016-12-06T13:59:51.202Z,29.92
2016-12-06T14:01:01.896Z,30.11
2016-12-06T14:02:12.601Z,29.44
2016-12-06T14:03:23.323Z,28.68
2016-12-06T14:04:35.045Z,29.17
2016-12-06T14:05:46.260Z,28.97
2016-12-06T14:06:56.987Z,29.07
2016-12-06T14:08:07.686Z,29.27
2016-12-06T14:09:18.397Z,29.17
2016-12-06T14:10:29.097Z,29.66
2016-12-06T14:11:39.844Z,29.54
2016-12-06T14:12:50.558Z,31.48
2016-12-06T14:14:01.249Z,31.28
2016-12-06T14:15:11.952Z,31.37
2016-12-06T14:16:22.645Z,33.69
2016-12-06T14:17:33.359Z,32.79
2016-12-06T14:18:44.078Z,32.03
2016-12-06T14:19:54.757Z,33.78
2016-12-06T14:21:06.062Z,33.86
2016-12-06T14:22:16.766Z,32.52
2016-12-06T14:23:27.439Z,33.2
2016-12-06T14:24:38.168Z,31.95
2016-12-06T14:25:48.870Z,31.27
2016-12-06T14:26:59.582Z,30.29
2016-12-06T14:28:10.257Z,30.1
2016-12-06T14:29:20.967Z,29.63
2016-12-06T14:30:31.658Z,30.42
2016-12-06T14:31:43.184Z,29.64
2016-12-06T14:32:53.870Z,29.46
2016-12-06T14:34:05.124Z,28.79
2016-12-06T14:35:15.838Z,29.38
2016-12-06T14:36:26.553Z,30.15
2016-12-06T14:37:37.241Z,28.97
2016-12-06T14:38:47.962Z,29.77
2016-12-06T14:39:58.650Z,30.54
2016-12-06T14:41:09.381Z,31.28
2016-12-06T14:42:20.398Z,31.56
2016-12-06T14:43:31.129Z,33.01
2016-12-06T14:44:41.836Z,34.16
2016-12-06T14:45:52.524Z,34.16
2016-12-06T14:47:03.221Z,33.85
2016-12-06T14:48:13.905Z,33.36
2016-12-06T14:49:24.600Z,33.95
2016-12-06T14:50:35.850Z,33.96
2016-12-06T14:51:46.550Z,33.46
2016-12-06T14:52:57.255Z,34.16
2016-12-06T14:54:07.949Z,34.84
2016-12-06T14:55:18.656Z,34.33
2016-12-06T14:56:29.352Z,34.72
2016-12-06T14:57:40.071Z,34.9
2016-12-06T14:58:50.790Z,35.27
2016-12-06T15:00:01.508Z,36.07
2016-12-06T15:01:12.201Z,35.88
2016-12-06T15:02:22.897Z,34.55
2016-12-06T15:03:33.623Z,34.08
2016-12-06T15:04:44.344Z,34.76
2016-12-06T15:05:55.411Z,33.78
2016-12-06T15:07:06.630Z,34.97
2016-12-06T15:08:17.342Z,33.22
2016-12-06T15:09:28.064Z,32.82
2016-12-06T15:10:38.776Z,33.53
2016-12-06T15:11:49.469Z,33.54
2016-12-06T15:13:00.170Z,32.29
2016-12-06T15:14:10.878Z,30.45